sensor_id;sensor_type;location;lat;lon;timestamp;P1;durP1;ratioP1;P2;durP2;ratioP2
31482;SDS011;18103;52.246;8.052;2023-01-19T00:01:13;6.93;;;3.73;;
31482;SDS011;18103;52.246;8.052;2023-01-19T00:03:39;9.50;;;4.60;;
31482;SDS011;18103;52.246;8.052;2023-01-19T00:06:07;5.97;;;4.37;;
31482;SDS011;18103;52.246;8.052;2023-01-19T00:08:33;11.17;;;3.97;;
31482;SDS011;18103;52.246;8.052;2023-01-19T00:10:59;18.57;;;4.80;;
31482;SDS011;18103;52.246;8.052;2023-01-19T00:13:25;8.97;;;2.83;;
31482;SDS011;18103;52.246;8.052;2023-01-19T00:15:50;6.07;;;3.33;;
31482;SDS011;18103;52.246;8.052;2023-01-19T00:18:15;12.40;;;4.87;;
31482;SDS011;18103;52.246;8.052;2023-01-19T00:20:41;12.13;;;4.80;;
31482;SDS011;18103;52.246;8.052;2023-01-19T00:23:09;5.77;;;3.53;;
31482;SDS011;18103;52.246;8.052;2023-01-19T00:25:35;5.67;;;3.93;;
31482;SDS011;18103;52.246;8.052;2023-01-19T00:28:11;14.37;;;5.73;;
31482;SDS011;18103;52.246;8.052;2023-01-19T00:30:38;7.27;;;4.13;;
31482;SDS011;18103;52.246;8.052;2023-01-19T00:33:05;11.67;;;6.70;;
31482;SDS011;18103;52.246;8.052;2023-01-19T00:35:30;8.03;;;4.67;;
31482;SDS011;18103;52.246;8.052;2023-01-19T00:37:58;9.83;;;4.27;;
31482;SDS011;18103;52.246;8.052;2023-01-19T00:40:25;10.53;;;5.40;;
31482;SDS011;18103;52.246;8.052;2023-01-19T00:42:50;9.50;;;5.63;;
31482;SDS011;18103;52.246;8.052;2023-01-19T00:45:16;11.87;;;4.60;;
31482;SDS011;18103;52.246;8.052;2023-01-19T00:47:47;12.67;;;5.37;;
31482;SDS011;18103;52.246;8.052;2023-01-19T00:50:18;17.47;;;6.93;;
31482;SDS011;18103;52.246;8.052;2023-01-19T00:52:44;9.30;;;3.73;;
31482;SDS011;18103;52.246;8.052;2023-01-19T00:55:10;12.27;;;5.60;;
31482;SDS011;18103;52.246;8.052;2023-01-19T00:57:38;12.00;;;6.07;;
31482;SDS011;18103;52.246;8.052;2023-01-19T01:00:04;8.93;;;4.93;;
31482;SDS011;18103;52.246;8.052;2023-01-19T01:02:31;6.93;;;3.70;;
31482;SDS011;18103;52.246;8.052;2023-01-19T01:04:57;8.17;;;4.23;;
31482;SDS011;18103;52.246;8.052;2023-01-19T01:07:27;10.20;;;5.67;;
31482;SDS011;18103;52.246;8.052;2023-01-19T01:09:53;9.20;;;3.30;;
31482;SDS011;18103;52.246;8.052;2023-01-19T01:12:18;10.53;;;5.37;;
31482;SDS011;18103;52.246;8.052;2023-01-19T01:14:43;10.13;;;5.43;;
31482;SDS011;18103;52.246;8.052;2023-01-19T01:17:09;11.00;;;5.00;;
31482;SDS011;18103;52.246;8.052;2023-01-19T01:19:39;9.03;;;3.90;;
31482;SDS011;18103;52.246;8.052;2023-01-19T01:22:05;5.97;;;3.93;;
31482;SDS011;18103;52.246;8.052;2023-01-19T01:24:31;13.87;;;6.53;;
31482;SDS011;18103;52.246;8.052;2023-01-19T01:26:57;11.83;;;5.47;;
31482;SDS011;18103;52.246;8.052;2023-01-19T01:29:22;12.60;;;5.60;;
31482;SDS011;18103;52.246;8.052;2023-01-19T01:31:48;12.83;;;6.30;;
31482;SDS011;18103;52.246;8.052;2023-01-19T01:34:13;9.17;;;4.63;;
31482;SDS011;18103;52.246;8.052;2023-01-19T01:36:38;15.13;;;7.77;;
31482;SDS011;18103;52.246;8.052;2023-01-19T01:39:04;20.20;;;7.70;;
31482;SDS011;18103;52.246;8.052;2023-01-19T01:41:30;22.20;;;6.67;;
31482;SDS011;18103;52.246;8.052;2023-01-19T01:43:56;11.60;;;6.30;;
31482;SDS011;18103;52.246;8.052;2023-01-19T01:46:24;10.53;;;6.17;;
31482;SDS011;18103;52.246;8.052;2023-01-19T01:51:28;9.80;;;5.40;;
31482;SDS011;18103;52.246;8.052;2023-01-19T01:56:37;12.07;;;6.87;;
31482;SDS011;18103;52.246;8.052;2023-01-19T01:59:06;12.40;;;6.90;;
31482;SDS011;18103;52.246;8.052;2023-01-19T02:01:36;8.87;;;4.30;;
31482;SDS011;18103;52.246;8.052;2023-01-19T02:04:19;7.47;;;4.10;;
31482;SDS011;18103;52.246;8.052;2023-01-19T02:06:46;14.70;;;6.70;;
31482;SDS011;18103;52.246;8.052;2023-01-19T02:09:31;9.27;;;5.93;;
31482;SDS011;18103;52.246;8.052;2023-01-19T02:12:19;17.90;;;6.67;;
31482;SDS011;18103;52.246;8.052;2023-01-19T02:15:03;14.87;;;7.63;;
31482;SDS011;18103;52.246;8.052;2023-01-19T02:17:29;9.37;;;5.43;;
31482;SDS011;18103;52.246;8.052;2023-01-19T02:19:55;16.00;;;7.80;;
31482;SDS011;18103;52.246;8.052;2023-01-19T02:24:50;7.67;;;4.27;;
31482;SDS011;18103;52.246;8.052;2023-01-19T02:27:16;13.27;;;6.13;;
31482;SDS011;18103;52.246;8.052;2023-01-19T02:29:42;12.07;;;7.23;;
31482;SDS011;18103;52.246;8.052;2023-01-19T02:32:07;9.83;;;4.20;;
31482;SDS011;18103;52.246;8.052;2023-01-19T02:34:33;13.87;;;6.87;;
31482;SDS011;18103;52.246;8.052;2023-01-19T02:37:03;7.17;;;4.60;;
31482;SDS011;18103;52.246;8.052;2023-01-19T02:39:44;16.40;;;8.10;;
31482;SDS011;18103;52.246;8.052;2023-01-19T02:42:17;10.37;;;6.13;;
31482;SDS011;18103;52.246;8.052;2023-01-19T02:44:46;8.77;;;4.20;;
31482;SDS011;18103;52.246;8.052;2023-01-19T02:47:14;9.47;;;6.37;;
31482;SDS011;18103;52.246;8.052;2023-01-19T02:49:40;14.73;;;6.93;;
31482;SDS011;18103;52.246;8.052;2023-01-19T02:52:06;12.73;;;6.87;;
31482;SDS011;18103;52.246;8.052;2023-01-19T02:54:51;17.60;;;6.87;;
31482;SDS011;18103;52.246;8.052;2023-01-19T02:57:35;10.93;;;5.07;;
31482;SDS011;18103;52.246;8.052;2023-01-19T03:00:16;13.87;;;7.70;;
31482;SDS011;18103;52.246;8.052;2023-01-19T03:08:40;9.13;;;4.97;;
31482;SDS011;18103;52.246;8.052;2023-01-19T03:11:11;7.90;;;4.47;;
31482;SDS011;18103;52.246;8.052;2023-01-19T03:13:43;13.13;;;5.43;;
31482;SDS011;18103;52.246;8.052;2023-01-19T03:18:38;15.23;;;7.60;;
31482;SDS011;18103;52.246;8.052;2023-01-19T03:21:08;12.97;;;7.27;;
31482;SDS011;18103;52.246;8.052;2023-01-19T03:23:37;12.50;;;7.17;;
31482;SDS011;18103;52.246;8.052;2023-01-19T03:26:08;16.30;;;7.07;;
31482;SDS011;18103;52.246;8.052;2023-01-19T03:28:37;18.13;;;7.17;;
31482;SDS011;18103;52.246;8.052;2023-01-19T03:31:16;12.57;;;6.40;;
31482;SDS011;18103;52.246;8.052;2023-01-19T03:33:49;17.10;;;8.60;;
31482;SDS011;18103;52.246;8.052;2023-01-19T03:36:20;13.30;;;7.57;;
31482;SDS011;18103;52.246;8.052;2023-01-19T03:38:51;11.33;;;6.83;;
31482;SDS011;18103;52.246;8.052;2023-01-19T03:41:19;15.80;;;7.67;;
31482;SDS011;18103;52.246;8.052;2023-01-19T03:43:47;15.07;;;7.97;;
31482;SDS011;18103;52.246;8.052;2023-01-19T03:46:14;15.63;;;8.97;;
31482;SDS011;18103;52.246;8.052;2023-01-19T03:48:42;24.10;;;7.87;;
31482;SDS011;18103;52.246;8.052;2023-01-19T03:51:09;4.13;;;3.10;;
31482;SDS011;18103;52.246;8.052;2023-01-19T03:53:35;14.93;;;7.20;;
31482;SDS011;18103;52.246;8.052;2023-01-19T03:56:00;19.43;;;8.27;;
31482;SDS011;18103;52.246;8.052;2023-01-19T03:58:26;19.37;;;8.40;;
31482;SDS011;18103;52.246;8.052;2023-01-19T04:00:52;16.80;;;7.03;;
31482;SDS011;18103;52.246;8.052;2023-01-19T04:03:17;21.63;;;8.97;;
31482;SDS011;18103;52.246;8.052;2023-01-19T04:05:43;8.87;;;5.07;;
31482;SDS011;18103;52.246;8.052;2023-01-19T04:08:09;13.13;;;6.87;;
31482;SDS011;18103;52.246;8.052;2023-01-19T04:10:36;17.13;;;8.13;;
31482;SDS011;18103;52.246;8.052;2023-01-19T04:13:01;11.90;;;6.90;;
31482;SDS011;18103;52.246;8.052;2023-01-19T04:15:28;4.63;;;3.17;;
31482;SDS011;18103;52.246;8.052;2023-01-19T04:17:56;14.30;;;8.23;;
31482;SDS011;18103;52.246;8.052;2023-01-19T04:20:22;22.37;;;8.37;;
31482;SDS011;18103;52.246;8.052;2023-01-19T04:22:47;23.97;;;9.17;;
31482;SDS011;18103;52.246;8.052;2023-01-19T04:25:13;11.00;;;6.27;;
31482;SDS011;18103;52.246;8.052;2023-01-19T04:27:39;17.17;;;7.33;;
31482;SDS011;18103;52.246;8.052;2023-01-19T04:30:05;16.83;;;8.10;;
31482;SDS011;18103;52.246;8.052;2023-01-19T04:32:31;15.90;;;8.60;;
31482;SDS011;18103;52.246;8.052;2023-01-19T04:34:56;15.40;;;8.60;;
31482;SDS011;18103;52.246;8.052;2023-01-19T04:37:22;12.50;;;7.10;;
31482;SDS011;18103;52.246;8.052;2023-01-19T04:39:48;26.97;;;9.07;;
31482;SDS011;18103;52.246;8.052;2023-01-19T04:42:13;16.67;;;8.00;;
31482;SDS011;18103;52.246;8.052;2023-01-19T04:44:39;10.57;;;5.90;;
31482;SDS011;18103;52.246;8.052;2023-01-19T04:47:04;14.43;;;6.17;;
31482;SDS011;18103;52.246;8.052;2023-01-19T04:49:29;14.30;;;7.70;;
31482;SDS011;18103;52.246;8.052;2023-01-19T04:51:55;7.47;;;4.83;;
31482;SDS011;18103;52.246;8.052;2023-01-19T04:54:20;30.63;;;8.10;;
31482;SDS011;18103;52.246;8.052;2023-01-19T04:56:46;13.23;;;7.03;;
31482;SDS011;18103;52.246;8.052;2023-01-19T04:59:12;12.10;;;6.23;;
31482;SDS011;18103;52.246;8.052;2023-01-19T05:01:38;17.63;;;8.20;;
31482;SDS011;18103;52.246;8.052;2023-01-19T05:04:03;17.53;;;8.37;;
31482;SDS011;18103;52.246;8.052;2023-01-19T05:06:31;13.90;;;6.07;;
31482;SDS011;18103;52.246;8.052;2023-01-19T05:08:57;14.10;;;5.73;;
31482;SDS011;18103;52.246;8.052;2023-01-19T05:11:22;12.13;;;6.33;;
31482;SDS011;18103;52.246;8.052;2023-01-19T05:13:47;18.70;;;8.87;;
31482;SDS011;18103;52.246;8.052;2023-01-19T05:16:13;12.80;;;6.43;;
31482;SDS011;18103;52.246;8.052;2023-01-19T05:18:38;13.00;;;7.43;;
31482;SDS011;18103;52.246;8.052;2023-01-19T05:21:04;12.03;;;6.93;;
31482;SDS011;18103;52.246;8.052;2023-01-19T05:23:30;11.40;;;6.43;;
31482;SDS011;18103;52.246;8.052;2023-01-19T05:25:56;10.07;;;5.77;;
31482;SDS011;18103;52.246;8.052;2023-01-19T05:28:24;11.93;;;6.80;;
31482;SDS011;18103;52.246;8.052;2023-01-19T05:30:51;16.23;;;6.47;;
31482;SDS011;18103;52.246;8.052;2023-01-19T05:33:16;5.83;;;2.90;;
31482;SDS011;18103;52.246;8.052;2023-01-19T05:35:41;9.20;;;5.10;;
31482;SDS011;18103;52.246;8.052;2023-01-19T05:38:07;9.57;;;5.20;;
31482;SDS011;18103;52.246;8.052;2023-01-19T05:40:32;9.30;;;5.87;;
31482;SDS011;18103;52.246;8.052;2023-01-19T05:42:57;7.57;;;5.10;;
31482;SDS011;18103;52.246;8.052;2023-01-19T05:45:25;14.80;;;6.60;;
31482;SDS011;18103;52.246;8.052;2023-01-19T05:47:52;7.63;;;5.30;;
31482;SDS011;18103;52.246;8.052;2023-01-19T05:50:18;6.57;;;3.70;;
31482;SDS011;18103;52.246;8.052;2023-01-19T05:52:44;9.00;;;4.43;;
31482;SDS011;18103;52.246;8.052;2023-01-19T05:55:09;9.80;;;5.07;;
31482;SDS011;18103;52.246;8.052;2023-01-19T05:57:35;9.90;;;5.03;;
31482;SDS011;18103;52.246;8.052;2023-01-19T06:00:01;9.10;;;5.00;;
31482;SDS011;18103;52.246;8.052;2023-01-19T06:02:27;8.80;;;5.20;;
31482;SDS011;18103;52.246;8.052;2023-01-19T06:04:54;10.07;;;4.07;;
31482;SDS011;18103;52.246;8.052;2023-01-19T06:07:20;9.13;;;5.07;;
31482;SDS011;18103;52.246;8.052;2023-01-19T06:09:45;7.53;;;4.77;;
31482;SDS011;18103;52.246;8.052;2023-01-19T06:12:11;6.80;;;3.40;;
31482;SDS011;18103;52.246;8.052;2023-01-19T06:14:36;9.03;;;5.67;;
31482;SDS011;18103;52.246;8.052;2023-01-19T06:17:02;8.40;;;5.53;;
31482;SDS011;18103;52.246;8.052;2023-01-19T06:19:30;5.47;;;3.40;;
31482;SDS011;18103;52.246;8.052;2023-01-19T06:21:55;2.70;;;1.60;;
31482;SDS011;18103;52.246;8.052;2023-01-19T06:24:20;8.80;;;4.30;;
31482;SDS011;18103;52.246;8.052;2023-01-19T06:26:47;7.53;;;4.10;;
31482;SDS011;18103;52.246;8.052;2023-01-19T06:29:12;6.57;;;3.67;;
31482;SDS011;18103;52.246;8.052;2023-01-19T06:31:38;5.10;;;3.53;;
31482;SDS011;18103;52.246;8.052;2023-01-19T06:34:04;5.97;;;3.33;;
31482;SDS011;18103;52.246;8.052;2023-01-19T06:36:31;7.57;;;4.53;;
31482;SDS011;18103;52.246;8.052;2023-01-19T06:38:56;5.23;;;3.27;;
31482;SDS011;18103;52.246;8.052;2023-01-19T06:41:22;5.97;;;4.27;;
31482;SDS011;18103;52.246;8.052;2023-01-19T06:43:47;5.90;;;3.77;;
31482;SDS011;18103;52.246;8.052;2023-01-19T06:46:13;5.40;;;3.77;;
31482;SDS011;18103;52.246;8.052;2023-01-19T06:48:38;7.03;;;4.20;;
31482;SDS011;18103;52.246;8.052;2023-01-19T06:51:03;6.43;;;4.87;;
31482;SDS011;18103;52.246;8.052;2023-01-19T06:53:30;5.20;;;3.53;;
31482;SDS011;18103;52.246;8.052;2023-01-19T06:55:59;7.30;;;4.33;;
31482;SDS011;18103;52.246;8.052;2023-01-19T06:58:26;7.70;;;4.73;;
31482;SDS011;18103;52.246;8.052;2023-01-19T07:00:52;5.93;;;4.23;;
31482;SDS011;18103;52.246;8.052;2023-01-19T07:03:18;5.17;;;3.00;;
31482;SDS011;18103;52.246;8.052;2023-01-19T07:05:45;5.20;;;3.63;;
31482;SDS011;18103;52.246;8.052;2023-01-19T07:08:13;5.50;;;4.30;;
31482;SDS011;18103;52.246;8.052;2023-01-19T07:10:39;6.90;;;4.10;;
31482;SDS011;18103;52.246;8.052;2023-01-19T07:13:05;6.37;;;4.27;;
31482;SDS011;18103;52.246;8.052;2023-01-19T07:15:30;3.47;;;2.77;;
31482;SDS011;18103;52.246;8.052;2023-01-19T07:17:58;4.63;;;2.63;;
31482;SDS011;18103;52.246;8.052;2023-01-19T07:20:27;6.97;;;3.97;;
31482;SDS011;18103;52.246;8.052;2023-01-19T07:22:55;4.00;;;2.63;;
31482;SDS011;18103;52.246;8.052;2023-01-19T07:25:21;4.17;;;2.77;;
31482;SDS011;18103;52.246;8.052;2023-01-19T07:27:47;4.80;;;3.27;;
31482;SDS011;18103;52.246;8.052;2023-01-19T07:30:12;4.10;;;2.73;;
31482;SDS011;18103;52.246;8.052;2023-01-19T07:32:40;4.73;;;3.33;;
31482;SDS011;18103;52.246;8.052;2023-01-19T07:35:06;4.30;;;3.00;;
31482;SDS011;18103;52.246;8.052;2023-01-19T07:37:33;4.60;;;3.37;;
31482;SDS011;18103;52.246;8.052;2023-01-19T07:39:59;2.97;;;2.10;;
31482;SDS011;18103;52.246;8.052;2023-01-19T07:42:24;5.13;;;2.93;;
31482;SDS011;18103;52.246;8.052;2023-01-19T07:44:50;2.73;;;1.93;;
31482;SDS011;18103;52.246;8.052;2023-01-19T07:47:15;4.07;;;2.57;;
31482;SDS011;18103;52.246;8.052;2023-01-19T07:49:40;6.00;;;3.43;;
31482;SDS011;18103;52.246;8.052;2023-01-19T07:52:06;4.83;;;3.10;;
31482;SDS011;18103;52.246;8.052;2023-01-19T07:54:32;8.10;;;3.37;;
31482;SDS011;18103;52.246;8.052;2023-01-19T07:56:57;5.80;;;3.37;;
31482;SDS011;18103;52.246;8.052;2023-01-19T07:59:24;5.07;;;2.97;;
31482;SDS011;18103;52.246;8.052;2023-01-19T08:01:50;6.77;;;2.87;;
31482;SDS011;18103;52.246;8.052;2023-01-19T08:04:17;4.43;;;2.73;;
31482;SDS011;18103;52.246;8.052;2023-01-19T08:06:43;4.53;;;2.67;;
31482;SDS011;18103;52.246;8.052;2023-01-19T08:09:10;3.93;;;2.30;;
31482;SDS011;18103;52.246;8.052;2023-01-19T08:11:36;3.57;;;2.13;;
31482;SDS011;18103;52.246;8.052;2023-01-19T08:14:02;3.67;;;2.30;;
31482;SDS011;18103;52.246;8.052;2023-01-19T08:16:27;2.47;;;2.23;;
31482;SDS011;18103;52.246;8.052;2023-01-19T08:18:53;3.40;;;2.00;;
31482;SDS011;18103;52.246;8.052;2023-01-19T08:21:18;2.43;;;2.17;;
31482;SDS011;18103;52.246;8.052;2023-01-19T08:23:50;2.97;;;2.00;;
31482;SDS011;18103;52.246;8.052;2023-01-19T08:26:20;3.30;;;2.30;;
31482;SDS011;18103;52.246;8.052;2023-01-19T08:28:53;3.03;;;2.27;;
31482;SDS011;18103;52.246;8.052;2023-01-19T08:31:20;3.10;;;2.60;;
31482;SDS011;18103;52.246;8.052;2023-01-19T08:33:46;4.17;;;2.23;;
31482;SDS011;18103;52.246;8.052;2023-01-19T08:36:11;3.27;;;2.23;;
31482;SDS011;18103;52.246;8.052;2023-01-19T08:38:36;3.23;;;2.03;;
31482;SDS011;18103;52.246;8.052;2023-01-19T08:41:05;4.50;;;2.30;;
31482;SDS011;18103;52.246;8.052;2023-01-19T08:43:30;4.27;;;2.60;;
31482;SDS011;18103;52.246;8.052;2023-01-19T08:45:56;2.00;;;1.53;;
31482;SDS011;18103;52.246;8.052;2023-01-19T08:48:21;2.80;;;1.53;;
31482;SDS011;18103;52.246;8.052;2023-01-19T08:50:47;4.80;;;2.30;;
31482;SDS011;18103;52.246;8.052;2023-01-19T08:53:14;3.40;;;2.67;;
31482;SDS011;18103;52.246;8.052;2023-01-19T08:55:40;8.03;;;2.40;;
31482;SDS011;18103;52.246;8.052;2023-01-19T08:58:06;2.30;;;1.90;;
31482;SDS011;18103;52.246;8.052;2023-01-19T09:00:36;3.93;;;2.13;;
31482;SDS011;18103;52.246;8.052;2023-01-19T09:03:02;3.53;;;2.20;;
31482;SDS011;18103;52.246;8.052;2023-01-19T09:05:30;3.47;;;2.33;;
31482;SDS011;18103;52.246;8.052;2023-01-19T09:07:59;6.10;;;2.83;;
31482;SDS011;18103;52.246;8.052;2023-01-19T09:10:26;3.93;;;2.70;;
31482;SDS011;18103;52.246;8.052;2023-01-19T09:12:55;9.40;;;2.73;;
31482;SDS011;18103;52.246;8.052;2023-01-19T09:15:21;4.47;;;2.93;;
31482;SDS011;18103;52.246;8.052;2023-01-19T09:17:47;4.50;;;2.70;;
31482;SDS011;18103;52.246;8.052;2023-01-19T09:20:12;7.13;;;2.17;;
31482;SDS011;18103;52.246;8.052;2023-01-19T09:22:37;6.93;;;2.90;;
31482;SDS011;18103;52.246;8.052;2023-01-19T09:25:03;4.53;;;2.60;;
31482;SDS011;18103;52.246;8.052;2023-01-19T09:27:30;10.87;;;3.00;;
31482;SDS011;18103;52.246;8.052;2023-01-19T09:29:55;6.10;;;2.70;;
31482;SDS011;18103;52.246;8.052;2023-01-19T09:32:21;9.80;;;2.30;;
31482;SDS011;18103;52.246;8.052;2023-01-19T09:34:46;8.50;;;2.30;;
31482;SDS011;18103;52.246;8.052;2023-01-19T09:37:12;8.03;;;3.13;;
31482;SDS011;18103;52.246;8.052;2023-01-19T09:39:39;8.53;;;2.77;;
31482;SDS011;18103;52.246;8.052;2023-01-19T09:45:01;9.57;;;2.73;;
31482;SDS011;18103;52.246;8.052;2023-01-19T09:47:30;4.00;;;2.30;;
31482;SDS011;18103;52.246;8.052;2023-01-19T09:50:00;5.53;;;2.37;;
31482;SDS011;18103;52.246;8.052;2023-01-19T09:52:30;4.10;;;2.13;;
31482;SDS011;18103;52.246;8.052;2023-01-19T09:54:59;3.50;;;2.10;;
31482;SDS011;18103;52.246;8.052;2023-01-19T09:57:25;4.60;;;2.50;;
31482;SDS011;18103;52.246;8.052;2023-01-19T09:59:51;1.50;;;1.33;;
31482;SDS011;18103;52.246;8.052;2023-01-19T10:02:34;4.43;;;2.30;;
31482;SDS011;18103;52.246;8.052;2023-01-19T10:05:04;10.00;;;1.90;;
31482;SDS011;18103;52.246;8.052;2023-01-19T10:10:24;9.80;;;2.23;;
31482;SDS011;18103;52.246;8.052;2023-01-19T10:15:25;3.20;;;2.20;;
31482;SDS011;18103;52.246;8.052;2023-01-19T10:20:38;7.57;;;2.23;;
31482;SDS011;18103;52.246;8.052;2023-01-19T10:26:03;7.00;;;1.83;;
31482;SDS011;18103;52.246;8.052;2023-01-19T10:28:47;4.53;;;1.63;;
31482;SDS011;18103;52.246;8.052;2023-01-19T10:31:16;8.27;;;2.10;;
31482;SDS011;18103;52.246;8.052;2023-01-19T10:33:44;9.93;;;2.13;;
31482;SDS011;18103;52.246;8.052;2023-01-19T10:36:20;6.03;;;2.70;;
31482;SDS011;18103;52.246;8.052;2023-01-19T10:38:51;5.90;;;1.90;;
31482;SDS011;18103;52.246;8.052;2023-01-19T10:41:27;6.77;;;1.90;;
31482;SDS011;18103;52.246;8.052;2023-01-19T10:44:05;6.80;;;1.83;;
31482;SDS011;18103;52.246;8.052;2023-01-19T10:46:33;12.60;;;2.37;;
31482;SDS011;18103;52.246;8.052;2023-01-19T10:48:59;19.03;;;2.90;;
31482;SDS011;18103;52.246;8.052;2023-01-19T10:51:24;16.60;;;2.40;;
31482;SDS011;18103;52.246;8.052;2023-01-19T10:53:54;4.37;;;1.60;;
31482;SDS011;18103;52.246;8.052;2023-01-19T10:56:22;9.40;;;1.90;;
31482;SDS011;18103;52.246;8.052;2023-01-19T10:58:51;8.00;;;1.80;;
31482;SDS011;18103;52.246;8.052;2023-01-19T11:01:23;1.80;;;1.37;;
31482;SDS011;18103;52.246;8.052;2023-01-19T11:03:51;7.63;;;2.07;;
31482;SDS011;18103;52.246;8.052;2023-01-19T11:06:19;7.37;;;2.03;;
31482;SDS011;18103;52.246;8.052;2023-01-19T11:08:50;5.37;;;2.30;;
31482;SDS011;18103;52.246;8.052;2023-01-19T11:11:17;4.57;;;2.00;;
31482;SDS011;18103;52.246;8.052;2023-01-19T11:13:44;11.17;;;2.90;;
31482;SDS011;18103;52.246;8.052;2023-01-19T11:16:34;2.93;;;1.57;;
31482;SDS011;18103;52.246;8.052;2023-01-19T11:19:02;13.77;;;3.03;;
31482;SDS011;18103;52.246;8.052;2023-01-19T11:21:28;1.83;;;1.20;;
31482;SDS011;18103;52.246;8.052;2023-01-19T11:23:56;6.07;;;2.87;;
31482;SDS011;18103;52.246;8.052;2023-01-19T11:26:24;7.87;;;2.13;;
31482;SDS011;18103;52.246;8.052;2023-01-19T11:28:57;7.43;;;2.53;;
31482;SDS011;18103;52.246;8.052;2023-01-19T11:31:29;2.67;;;1.50;;
31482;SDS011;18103;52.246;8.052;2023-01-19T11:33:58;5.43;;;2.03;;
31482;SDS011;18103;52.246;8.052;2023-01-19T11:36:26;7.60;;;2.60;;
31482;SDS011;18103;52.246;8.052;2023-01-19T11:39:01;12.60;;;2.27;;
31482;SDS011;18103;52.246;8.052;2023-01-19T11:41:48;12.73;;;2.10;;
31482;SDS011;18103;52.246;8.052;2023-01-19T11:44:21;7.03;;;2.33;;
31482;SDS011;18103;52.246;8.052;2023-01-19T11:46:51;13.20;;;1.37;;
31482;SDS011;18103;52.246;8.052;2023-01-19T11:52:17;6.90;;;2.10;;
31482;SDS011;18103;52.246;8.052;2023-01-19T11:55:16;11.93;;;2.80;;
31482;SDS011;18103;52.246;8.052;2023-01-19T11:57:50;6.13;;;2.17;;
31482;SDS011;18103;52.246;8.052;2023-01-19T12:00:25;9.00;;;2.20;;
31482;SDS011;18103;52.246;8.052;2023-01-19T12:03:00;1.43;;;1.33;;
31482;SDS011;18103;52.246;8.052;2023-01-19T12:05:32;8.37;;;2.70;;
31482;SDS011;18103;52.246;8.052;2023-01-19T12:07:59;7.50;;;2.17;;
31482;SDS011;18103;52.246;8.052;2023-01-19T12:10:31;10.13;;;3.10;;
31482;SDS011;18103;52.246;8.052;2023-01-19T12:13:01;6.80;;;1.97;;
31482;SDS011;18103;52.246;8.052;2023-01-19T12:15:31;5.03;;;2.10;;
31482;SDS011;18103;52.246;8.052;2023-01-19T12:18:03;4.90;;;2.30;;
31482;SDS011;18103;52.246;8.052;2023-01-19T12:20:34;2.50;;;1.67;;
31482;SDS011;18103;52.246;8.052;2023-01-19T12:23:12;16.70;;;2.80;;
31482;SDS011;18103;52.246;8.052;2023-01-19T12:25:50;3.17;;;1.27;;
31482;SDS011;18103;52.246;8.052;2023-01-19T12:28:30;5.03;;;1.73;;
31482;SDS011;18103;52.246;8.052;2023-01-19T12:30:59;10.20;;;2.47;;
31482;SDS011;18103;52.246;8.052;2023-01-19T12:33:38;4.07;;;1.70;;
31482;SDS011;18103;52.246;8.052;2023-01-19T12:36:05;11.20;;;1.93;;
31482;SDS011;18103;52.246;8.052;2023-01-19T12:41:17;11.00;;;3.03;;
31482;SDS011;18103;52.246;8.052;2023-01-19T12:43:46;11.47;;;2.63;;
31482;SDS011;18103;52.246;8.052;2023-01-19T12:46:29;11.33;;;1.70;;
31482;SDS011;18103;52.246;8.052;2023-01-19T12:49:02;10.70;;;1.70;;
31482;SDS011;18103;52.246;8.052;2023-01-19T12:51:52;4.27;;;1.77;;
31482;SDS011;18103;52.246;8.052;2023-01-19T12:54:35;13.90;;;2.00;;
31482;SDS011;18103;52.246;8.052;2023-01-19T12:57:24;12.40;;;1.87;;
31482;SDS011;18103;52.246;8.052;2023-01-19T13:00:26;4.23;;;1.63;;
31482;SDS011;18103;52.246;8.052;2023-01-19T13:02:52;14.77;;;2.23;;
31482;SDS011;18103;52.246;8.052;2023-01-19T13:13:25;11.80;;;2.40;;
31482;SDS011;18103;52.246;8.052;2023-01-19T13:15:52;7.10;;;1.40;;
31482;SDS011;18103;52.246;8.052;2023-01-19T13:18:19;6.67;;;2.33;;
31482;SDS011;18103;52.246;8.052;2023-01-19T13:20:49;8.87;;;3.03;;
31482;SDS011;18103;52.246;8.052;2023-01-19T13:23:50;8.70;;;2.33;;
31482;SDS011;18103;52.246;8.052;2023-01-19T13:26:17;4.53;;;1.70;;
31482;SDS011;18103;52.246;8.052;2023-01-19T13:28:45;9.07;;;2.07;;
31482;SDS011;18103;52.246;8.052;2023-01-19T13:31:14;3.17;;;2.13;;
31482;SDS011;18103;52.246;8.052;2023-01-19T13:39:17;12.00;;;2.43;;
31482;SDS011;18103;52.246;8.052;2023-01-19T13:41:47;13.37;;;2.63;;
31482;SDS011;18103;52.246;8.052;2023-01-19T13:44:22;12.77;;;2.63;;
31482;SDS011;18103;52.246;8.052;2023-01-19T13:46:51;9.40;;;2.53;;
31482;SDS011;18103;52.246;8.052;2023-01-19T13:49:21;11.80;;;2.83;;
31482;SDS011;18103;52.246;8.052;2023-01-19T13:52:15;8.40;;;2.63;;
31482;SDS011;18103;52.246;8.052;2023-01-19T13:54:52;12.33;;;2.63;;
31482;SDS011;18103;52.246;8.052;2023-01-19T13:57:28;8.73;;;2.67;;
31482;SDS011;18103;52.246;8.052;2023-01-19T14:02:36;14.47;;;2.87;;
31482;SDS011;18103;52.246;8.052;2023-01-19T14:05:21;7.97;;;2.90;;
31482;SDS011;18103;52.246;8.052;2023-01-19T14:10:24;7.53;;;2.87;;
31482;SDS011;18103;52.246;8.052;2023-01-19T14:12:59;9.17;;;3.07;;
31482;SDS011;18103;52.246;8.052;2023-01-19T14:15:27;7.03;;;2.70;;
31482;SDS011;18103;52.246;8.052;2023-01-19T14:20:37;18.63;;;3.37;;
31482;SDS011;18103;52.246;8.052;2023-01-19T14:23:04;9.73;;;3.13;;
31482;SDS011;18103;52.246;8.052;2023-01-19T14:25:32;9.10;;;3.93;;
31482;SDS011;18103;52.246;8.052;2023-01-19T14:31:20;12.80;;;3.17;;
31482;SDS011;18103;52.246;8.052;2023-01-19T14:33:50;8.90;;;3.67;;
31482;SDS011;18103;52.246;8.052;2023-01-19T14:36:25;6.73;;;3.13;;
31482;SDS011;18103;52.246;8.052;2023-01-19T14:39:00;8.10;;;3.17;;
31482;SDS011;18103;52.246;8.052;2023-01-19T14:41:29;11.40;;;3.90;;
31482;SDS011;18103;52.246;8.052;2023-01-19T14:43:57;8.83;;;3.57;;
31482;SDS011;18103;52.246;8.052;2023-01-19T14:46:24;9.83;;;3.57;;
31482;SDS011;18103;52.246;8.052;2023-01-19T14:48:54;11.83;;;3.70;;
31482;SDS011;18103;52.246;8.052;2023-01-19T14:51:26;9.47;;;4.03;;
31482;SDS011;18103;52.246;8.052;2023-01-19T14:53:53;9.30;;;4.17;;
31482;SDS011;18103;52.246;8.052;2023-01-19T14:56:25;14.10;;;4.63;;
31482;SDS011;18103;52.246;8.052;2023-01-19T14:58:53;17.77;;;4.20;;
31482;SDS011;18103;52.246;8.052;2023-01-19T15:01:20;6.83;;;3.90;;
31482;SDS011;18103;52.246;8.052;2023-01-19T15:03:46;11.57;;;4.17;;
31482;SDS011;18103;52.246;8.052;2023-01-19T15:06:14;21.63;;;3.90;;
31482;SDS011;18103;52.246;8.052;2023-01-19T15:08:43;10.70;;;4.40;;
31482;SDS011;18103;52.246;8.052;2023-01-19T15:11:09;10.70;;;4.60;;
31482;SDS011;18103;52.246;8.052;2023-01-19T15:13:38;16.40;;;5.03;;
31482;SDS011;18103;52.246;8.052;2023-01-19T15:16:07;13.60;;;5.00;;
31482;SDS011;18103;52.246;8.052;2023-01-19T15:18:33;14.67;;;5.63;;
31482;SDS011;18103;52.246;8.052;2023-01-19T15:20:58;14.67;;;5.53;;
31482;SDS011;18103;52.246;8.052;2023-01-19T15:23:27;13.33;;;6.23;;
31482;SDS011;18103;52.246;8.052;2023-01-19T15:25:57;12.10;;;4.97;;
31482;SDS011;18103;52.246;8.052;2023-01-19T15:28:24;15.87;;;6.13;;
31482;SDS011;18103;52.246;8.052;2023-01-19T15:30:49;11.03;;;5.70;;
31482;SDS011;18103;52.246;8.052;2023-01-19T15:33:21;14.90;;;5.50;;
31482;SDS011;18103;52.246;8.052;2023-01-19T15:35:54;14.03;;;4.97;;
31482;SDS011;18103;52.246;8.052;2023-01-19T15:38:19;15.17;;;5.27;;
31482;SDS011;18103;52.246;8.052;2023-01-19T15:40:45;16.93;;;6.03;;
31482;SDS011;18103;52.246;8.052;2023-01-19T15:43:11;15.67;;;6.10;;
31482;SDS011;18103;52.246;8.052;2023-01-19T15:45:38;13.00;;;5.17;;
31482;SDS011;18103;52.246;8.052;2023-01-19T15:48:08;16.37;;;5.40;;
31482;SDS011;18103;52.246;8.052;2023-01-19T15:50:35;19.27;;;5.57;;
31482;SDS011;18103;52.246;8.052;2023-01-19T15:53:05;19.23;;;6.50;;